Time;durP1;ratioP1;P1;durP2;ratioP2;P2;SDS_P1;SDS_P2;PMS_P1;PMS_P2;Temp;Humidity;BMP_temperature;BMP_pressure;BME280_temperature;BME280_humidity;BME280_pressure;Samples;Min_cycle;Max_cycle;Signal;HPM_P1;HPM_P2
2022/11/19 00:01:11;;;;;;;44.27;23.97;;;;;;;1.28;100.00;97720.78;5033373;28;20025;-60
2022/11/19 00:03:38;;;;;;;48.73;21.63;;;;;;;1.30;100.00;97720.81;5032010;28;20095;-61
2022/11/19 00:06:10;;;;;;;50.00;23.50;;;;;;;1.18;100.00;97746.00;5022008;28;20047;-59
2022/11/19 00:08:36;;;;;;;50.00;24.37;;;;;;;1.16;100.00;97740.09;5024789;28;20813;-60
2022/11/19 00:11:11;;;;;;;48.80;25.10;;;;;;;1.06;100.00;97730.81;5028633;28;20029;-61
2022/11/19 00:13:38;;;;;;;44.65;23.55;;;;;;;1.10;100.00;97743.47;5032067;28;20114;-60
2022/11/19 00:16:10;;;;;;;46.17;21.57;;;;;;;1.02;100.00;97742.56;5032753;28;20156;-61
2022/11/19 00:18:36;;;;;;;45.30;21.17;;;;;;;0.88;100.00;97752.63;5031976;28;20067;-61
2022/11/19 00:21:11;;;;;;;49.23;22.43;;;;;;;0.93;100.00;97758.50;5031670;28;20053;-61
2022/11/19 00:23:38;;;;;;;44.55;21.83;;;;;;;0.82;100.00;97746.69;5031605;28;20471;-60
2022/11/19 00:26:12;;;;;;;44.00;20.53;;;;;;;0.84;100.00;97780.34;5031052;28;20045;-60
2022/11/19 00:28:39;;;;;;;45.53;22.90;;;;;;;0.76;100.00;97785.34;5031858;28;20048;-62
2022/11/19 00:31:10;;;;;;;44.13;20.43;;;;;;;0.73;100.00;97781.94;5029234;28;20045;-60
2022/11/19 00:33:37;;;;;;;45.77;22.97;;;;;;;0.76;100.00;97784.50;5031779;28;20091;-61
2022/11/19 00:36:04;;;;;;;40.47;20.17;;;;;;;0.69;100.00;97786.13;5026701;28;20088;-60
2022/11/19 00:38:31;;;;;;;47.70;20.77;;;;;;;0.59;100.00;97766.75;5025658;28;20045;-61
2022/11/19 00:40:57;;;;;;;41.23;20.93;;;;;;;0.48;100.00;97783.47;5031659;28;20040;-60
2022/11/19 00:46:07;;;;;;;46.80;21.53;;;;;;;0.65;100.00;97801.22;5030804;28;20069;-61
2022/11/19 00:48:33;;;;;;;44.37;21.07;;;;;;;0.56;100.00;97804.53;5031117;28;20155;-61
2022/11/19 00:50:58;;;;;;;42.37;19.60;;;;;;;0.49;100.00;97801.97;5030299;28;20041;-63
2022/11/19 00:53:24;;;;;;;49.73;23.20;;;;;;;0.53;100.00;97809.56;5030480;28;20037;-60
2022/11/19 00:55:50;;;;;;;45.67;21.07;;;;;;;0.53;100.00;97812.09;5030573;28;20056;-62
2022/11/19 00:58:16;;;;;;;47.53;23.17;;;;;;;0.55;100.00;97741.22;5046804;28;20056;-61
2022/11/19 01:00:42;;;;;;;46.40;21.60;;;;;;;0.51;100.00;97815.44;5033126;28;20053;-62
2022/11/19 01:03:08;;;;;;;49.27;22.37;;;;;;;0.40;100.00;97800.22;5027035;28;20052;-62
2022/11/19 01:05:33;;;;;;;45.93;21.87;;;;;;;0.51;100.00;97820.50;5028190;28;20129;-61
2022/11/19 01:07:59;;;;;;;42.87;22.23;;;;;;;0.52;100.00;139877.00;5027677;28;20626;-62
2022/11/19 01:10:25;;;;;;;48.63;21.77;;;;;;;0.49;100.00;97823.00;5030984;28;20063;-61
2022/11/19 01:15:34;;;;;;;39.90;21.53;;;;;;;-142.25;100.00;58004.16;5029841;28;20120;-61
2022/11/19 01:18:00;;;;;;;47.43;20.27;;;;;;;-142.25;100.00;58004.16;5029603;28;20031;-63
2022/11/19 01:20:26;;;;;;;41.83;21.67;;;;;;;-142.25;100.00;58004.16;5028495;28;20057;-60
2022/11/19 01:22:51;;;;;;;39.27;19.67;;;;;;;-142.25;100.00;58004.16;5044196;28;20037;-62
2022/11/19 01:25:18;;;;;;;40.73;20.97;;;;;;;-142.25;100.00;58004.16;5029952;28;20056;-61
2022/11/19 01:27:44;;;;;;;32.93;16.67;;;;;;;-142.25;100.00;58004.16;5030216;28;20041;-61
2022/11/19 01:30:10;;;;;;;38.97;19.27;;;;;;;-142.25;100.00;58004.16;5027650;28;20052;-62
2022/11/19 01:32:36;;;;;;;41.17;21.13;;;;;;;-142.25;100.00;58004.16;5029561;28;20060;-61
2022/11/19 01:35:02;;;;;;;41.80;20.47;;;;;;;-142.25;100.00;58004.16;5022783;28;20049;-62
2022/11/19 01:37:34;;;;;;;37.33;19.50;;;;;;;-142.25;100.00;58004.16;5024951;28;20125;-62
2022/11/19 01:39:59;;;;;;;40.43;20.07;;;;;;;-142.25;100.00;58004.16;5028813;28;20508;-65
2022/11/19 01:42:49;;;;;;;43.63;20.10;;;;;;;-142.25;100.00;58004.16;5025399;28;20057;-60
2022/11/19 01:45:29;;;;;;;43.33;19.17;;;;;;;-142.25;100.00;58004.16;5026189;28;20091;-62
2022/11/19 01:48:00;;;;;;;44.63;21.13;;;;;;;-142.25;100.00;58004.16;5030647;28;20041;-60
2022/11/19 01:50:30;;;;;;;39.47;19.63;;;;;;;-142.25;100.00;58004.16;5029686;28;20119;-61
2022/11/19 01:52:55;;;;;;;40.97;19.57;;;;;;;-142.25;100.00;58004.16;5029711;28;20037;-60
2022/11/19 01:55:22;;;;;;;38.87;19.57;;;;;;;-142.25;100.00;58004.16;5030312;28;20048;-60
2022/11/19 01:57:54;;;;;;;39.93;18.50;;;;;;;-142.25;100.00;58004.16;5023297;28;20049;-61
2022/11/19 02:00:21;;;;;;;39.07;18.17;;;;;;;-142.25;100.00;58004.16;5022334;28;20041;-62
2022/11/19 02:02:47;;;;;;;42.77;18.97;;;;;;;-142.25;100.00;58004.16;5035988;28;20043;-59
2022/11/19 02:05:12;;;;;;;36.03;19.17;;;;;;;-142.25;100.00;58004.16;5036673;28;20049;-60
2022/11/19 02:07:42;;;;;;;38.87;20.10;;;;;;;-142.25;100.00;58004.16;5036612;28;20041;-60
2022/11/19 02:10:08;;;;;;;39.07;21.43;;;;;;;-142.25;100.00;58004.16;5047509;28;20084;-59
2022/11/19 02:12:36;;;;;;;43.03;20.83;;;;;;;-142.25;100.00;58004.16;5035213;28;20344;-61
2022/11/19 02:15:19;;;;;;;42.07;20.57;;;;;;;-142.25;100.00;58004.16;5037039;28;20476;-62
2022/11/19 02:18:03;;;;;;;43.07;19.20;;;;;;;-142.25;100.00;58004.16;5038955;28;20034;-65
2022/11/19 02:20:38;;;;;;;46.73;21.67;;;;;;;-142.25;100.00;58004.16;5038608;28;20037;-62
2022/11/19 02:23:22;;;;;;;45.38;20.80;;;;;;;-142.25;100.00;58004.16;5034844;28;20547;-62
2022/11/19 02:26:02;;;;;;;39.43;19.87;;;;;;;-142.25;100.00;58004.16;5032963;28;20037;-60
2022/11/19 02:28:40;;;;;;;39.10;19.50;;;;;;;-142.25;100.00;58004.16;5046821;28;20114;-61
2022/11/19 02:31:13;;;;;;;44.00;22.87;;;;;;;-142.25;100.00;58004.16;5053394;28;20729;-61
2022/11/19 02:33:52;;;;;;;49.70;24.20;;;;;;;-142.25;100.00;58004.16;5039184;28;20146;-61
2022/11/19 02:36:25;;;;;;;49.77;23.30;;;;;;;-142.25;100.00;58004.16;5037087;28;20056;-63
2022/11/19 02:39:05;;;;;;;52.00;21.80;;;;;;;-142.25;100.00;58004.16;5037706;28;20143;-61
2022/11/19 02:41:47;;;;;;;50.40;24.13;;;;;;;-142.25;100.00;58004.16;5034954;28;20127;-62
2022/11/19 02:47:12;;;;;;;50.50;22.53;;;;;;;-142.25;100.00;58004.16;5034250;28;20062;-61
2022/11/19 02:49:43;;;;;;;51.97;23.93;;;;;;;-142.25;100.00;58004.16;5035189;28;20061;-63
2022/11/19 02:52:10;;;;;;;49.73;23.00;;;;;;;-142.25;100.00;58004.16;5036818;28;20090;-62
2022/11/19 02:54:36;;;;;;;48.87;23.53;;;;;;;-142.25;100.00;58004.16;5034188;28;20041;-61
2022/11/19 02:57:02;;;;;;;44.50;22.33;;;;;;;-142.25;100.00;58004.16;5035412;28;20048;-60
2022/11/19 03:05:21;;;;;;;45.90;22.47;;;;;;;-142.25;100.00;58004.16;5031643;28;20286;-62
2022/11/19 03:07:47;;;;;;;55.07;23.30;;;;;;;-142.25;100.00;58004.16;5028111;28;20488;-60
2022/11/19 03:10:14;;;;;;;50.50;22.33;;;;;;;-142.25;100.00;58004.16;5034182;28;20060;-61
2022/11/19 03:19:18;;;;;;;47.07;22.77;;;;;;;-142.25;100.00;58004.16;5031118;28;20042;-62
2022/11/19 03:21:53;;;;;;;50.17;22.75;;;;;;;-142.25;100.00;58004.16;5021972;28;20118;-62
2022/11/19 03:25:07;;;;;;;53.63;24.88;;;;;;;-142.25;100.00;58004.16;5028623;28;20041;-59
2022/11/19 03:27:40;;;;;;;47.77;22.93;;;;;;;-142.25;100.00;58004.16;5008033;28;20252;-61
2022/11/19 03:30:08;;;;;;;48.93;21.90;;;;;;;-142.25;100.00;58004.16;5008683;28;20509;-62
2022/11/19 03:32:48;;;;;;;52.87;22.60;;;;;;;-142.25;100.00;58004.16;5008065;28;20144;-61
2022/11/19 03:35:37;;;;;;;49.57;22.47;;;;;;;-142.25;100.00;58004.16;5009008;28;20042;-61
2022/11/19 03:38:07;;;;;;;46.17;22.97;;;;;;;-142.25;100.00;58004.16;5004488;28;20424;-60
2022/11/19 03:40:33;;;;;;;49.93;23.97;;;;;;;-142.25;100.00;58004.16;5012385;28;20123;-62
2022/11/19 03:43:02;;;;;;;47.90;23.80;;;;;;;-142.25;100.00;58004.16;5011820;28;20233;-63
2022/11/19 03:45:33;;;;;;;44.30;21.57;;;;;;;-142.25;100.00;58004.16;5014374;28;20495;-63
2022/11/19 03:48:01;;;;;;;50.87;23.00;;;;;;;-142.25;100.00;58004.16;5012563;28;20041;-60
2022/11/19 03:50:47;;;;;;;45.80;22.43;;;;;;;-142.25;100.00;58004.16;5010614;28;20630;-61
2022/11/19 03:53:14;;;;;;;47.07;22.93;;;;;;;-142.25;100.00;58004.16;5009631;28;20526;-60
2022/11/19 03:56:19;;;;;;;48.23;22.47;;;;;;;-142.25;100.00;58004.16;4991871;28;20041;-59
2022/11/19 03:58:46;;;;;;;42.97;20.10;;;;;;;-142.25;100.00;58004.16;5022551;28;20545;-60
2022/11/19 04:01:13;;;;;;;45.57;21.20;;;;;;;-142.25;100.00;58004.16;5041389;28;20124;-62
2022/11/19 04:03:39;;;;;;;48.60;20.23;;;;;;;-142.25;100.00;58004.16;5047278;28;20057;-61
2022/11/19 04:06:05;;;;;;;40.03;19.40;;;;;;;-142.25;100.00;58004.16;5037314;28;20128;-61
2022/11/19 04:08:31;;;;;;;42.87;20.17;;;;;;;-142.25;100.00;58004.16;5044578;28;20052;-62
2022/11/19 04:11:00;;;;;;;42.60;20.67;;;;;;;-142.25;100.00;58004.16;5034604;28;20044;-61
2022/11/19 04:13:25;;;;;;;44.93;19.87;;;;;;;-142.25;100.00;58004.16;5035343;28;20567;-60
2022/11/19 04:15:51;;;;;;;41.17;19.63;;;;;;;-142.25;100.00;58004.16;5031253;28;20040;-61
2022/11/19 04:18:17;;;;;;;40.90;19.77;;;;;;;-142.25;100.00;58004.16;5033798;28;21012;-58
2022/11/19 04:20:45;;;;;;;38.47;19.13;;;;;;;-142.25;100.00;58004.16;5030905;28;20540;-61
2022/11/19 04:23:11;;;;;;;41.43;20.07;;;;;;;-142.25;100.00;58004.16;5031879;28;20052;-60
2022/11/19 04:25:37;;;;;;;48.07;22.23;;;;;;;-142.25;100.00;58004.16;5042324;28;20051;-61
2022/11/19 04:28:03;;;;;;;43.87;22.00;;;;;;;-142.25;100.00;58004.16;5046091;28;20633;-61
2022/11/19 04:30:29;;;;;;;46.23;21.63;;;;;;;-142.25;100.00;58004.16;5031734;28;20044;-62
2022/11/19 04:32:54;;;;;;;41.43;19.97;;;;;;;-142.25;100.00;58004.16;5030099;28;20040;-61
2022/11/19 04:35:20;;;;;;;44.60;21.47;;;;;;;-142.25;100.00;58004.16;5027973;28;20447;-61
2022/11/19 04:37:47;;;;;;;44.83;22.30;;;;;;;-142.25;100.00;58004.16;5029768;28;20152;-61
2022/11/19 04:40:13;;;;;;;48.07;22.27;;;;;;;-142.25;100.00;58004.16;5030522;28;20048;-62
2022/11/19 04:42:39;;;;;;;54.67;25.20;;;;;;;-142.25;100.00;58004.16;5012542;28;20160;-59
2022/11/19 04:45:06;;;;;;;47.93;24.13;;;;;;;-142.25;100.00;58004.16;5030523;28;20033;-61
2022/11/19 04:47:31;;;;;;;45.77;22.37;;;;;;;-142.25;100.00;58004.16;5031705;28;20652;-60
2022/11/19 04:49:57;;;;;;;46.40;21.93;;;;;;;-142.25;100.00;58004.16;5029178;28;20551;-60
2022/11/19 04:52:23;;;;;;;51.07;23.73;;;;;;;-142.25;100.00;58004.16;5028874;28;20488;-59
2022/11/19 04:54:48;;;;;;;46.87;21.63;;;;;;;-142.25;100.00;58004.16;5031249;28;20052;-64
2022/11/19 04:57:14;;;;;;;53.77;23.87;;;;;;;-142.25;100.00;58004.16;5045663;28;20377;-59
2022/11/19 04:59:39;;;;;;;52.30;24.33;;;;;;;-142.25;100.00;58004.16;5030674;28;20037;-59
2022/11/19 05:02:05;;;;;;;55.47;25.53;;;;;;;-142.25;100.00;58004.16;5046973;28;20128;-60
2022/11/19 05:04:30;;;;;;;51.20;27.23;;;;;;;-142.25;100.00;58004.16;5031329;28;20050;-61
2022/11/19 05:06:56;;;;;;;48.37;23.33;;;;;;;-142.25;100.00;58004.16;5044604;28;20048;-61
2022/11/19 05:09:22;;;;;;;50.47;22.77;;;;;;;-142.25;100.00;58004.16;5031305;28;20081;-62
2022/11/19 05:11:47;;;;;;;58.57;25.33;;;;;;;-142.25;100.00;58004.16;5029075;28;20136;-59
2022/11/19 05:14:13;;;;;;;49.53;24.10;;;;;;;-142.25;100.00;58004.16;5031761;28;20663;-62
2022/11/19 05:16:38;;;;;;;43.80;20.47;;;;;;;-142.25;100.00;58004.16;5029644;28;20121;-60
2022/11/19 05:19:04;;;;;;;47.37;21.47;;;;;;;-142.25;100.00;58004.16;5031306;28;20045;-62
2022/11/19 05:21:30;;;;;;;38.73;19.97;;;;;;;-142.25;100.00;58004.16;5031075;28;20026;-62
2022/11/19 05:23:55;;;;;;;41.77;19.93;;;;;;;-142.25;100.00;58004.16;5029936;28;20484;-61
2022/11/19 05:26:21;;;;;;;44.83;20.33;;;;;;;-142.25;100.00;58004.16;5028514;28;20110;-61
2022/11/19 05:28:46;;;;;;;43.97;21.30;;;;;;;-142.25;100.00;58004.16;5030646;28;20088;-62
2022/11/19 05:31:12;;;;;;;46.30;22.37;;;;;;;-142.25;100.00;58004.16;5026403;28;20053;-63
2022/11/19 05:33:37;;;;;;;46.33;21.53;;;;;;;-142.25;100.00;58004.16;5031560;28;20507;-62
2022/11/19 05:36:03;;;;;;;42.57;20.97;;;;;;;-142.25;100.00;58004.16;5025289;28;20052;-62
2022/11/19 05:38:29;;;;;;;53.53;23.83;;;;;;;-142.25;100.00;58004.16;5030688;28;20048;-59
2022/11/19 05:40:54;;;;;;;45.77;23.83;;;;;;;-142.25;100.00;58004.16;5029290;28;20049;-60
2022/11/19 05:43:20;;;;;;;43.63;21.13;;;;;;;-142.25;100.00;58004.16;5029136;28;20518;-60
2022/11/19 05:45:46;;;;;;;45.93;24.03;;;;;;;-142.25;100.00;58004.16;5029688;28;20045;-61
2022/11/19 05:48:11;;;;;;;54.43;23.23;;;;;;;-142.25;100.00;58004.16;5029706;28;20103;-59
2022/11/19 05:50:37;;;;;;;45.67;20.93;;;;;;;-142.25;100.00;58004.16;5029302;28;20151;-62
2022/11/19 05:53:04;;;;;;;42.47;20.83;;;;;;;-142.25;100.00;58004.16;5029667;28;20046;-62
2022/11/19 05:55:30;;;;;;;49.57;23.17;;;;;;;-142.25;100.00;58004.16;5041307;28;20895;-62
2022/11/19 05:57:55;;;;;;;50.23;22.63;;;;;;;-142.25;100.00;58004.16;5031004;28;20071;-62
2022/11/19 06:00:21;;;;;;;45.93;21.80;;;;;;;-142.25;100.00;58004.16;5030632;28;20061;-62
2022/11/19 06:02:47;;;;;;;48.23;21.80;;;;;;;-142.25;100.00;58004.16;5025444;28;20041;-61
2022/11/19 06:05:12;;;;;;;44.53;22.23;;;;;;;-142.25;100.00;58004.16;5026603;28;20095;-60
2022/11/19 06:07:38;;;;;;;51.67;22.93;;;;;;;-142.25;100.00;58004.16;5031086;28;20124;-61
2022/11/19 06:10:04;;;;;;;46.47;21.67;;;;;;;-142.25;100.00;58004.16;5026434;28;20266;-60
2022/11/19 06:12:29;;;;;;;39.13;19.23;;;;;;;-142.25;100.00;58004.16;5022778;28;20098;-60
2022/11/19 06:14:55;;;;;;;48.47;20.30;;;;;;;-142.25;100.00;58004.16;5039104;28;20543;-61
2022/11/19 06:17:21;;;;;;;44.23;19.80;;;;;;;-142.25;100.00;58004.16;5028258;28;20098;-62
2022/11/19 06:19:47;;;;;;;39.23;19.43;;;;;;;-142.25;100.00;58004.16;5029355;28;20491;-60
2022/11/19 06:22:12;;;;;;;37.00;18.17;;;;;;;-142.25;100.00;58004.16;5026901;28;20045;-61
2022/11/19 06:24:38;;;;;;;37.70;17.97;;;;;;;-142.25;100.00;58004.16;5028540;28;20037;-62
2022/11/19 06:27:03;;;;;;;43.87;20.20;;;;;;;-142.25;100.00;58004.16;5020627;28;20237;-63
2022/11/19 06:29:29;;;;;;;41.27;18.53;;;;;;;-142.25;100.00;58004.16;5026007;28;20128;-62
2022/11/19 06:31:55;;;;;;;41.07;18.17;;;;;;;-142.25;100.00;58004.16;5028345;28;20120;-63
2022/11/19 06:34:20;;;;;;;42.87;20.63;;;;;;;-142.25;100.00;58004.16;5028663;28;20081;-63
2022/11/19 06:36:46;;;;;;;40.70;18.20;;;;;;;-142.25;100.00;58004.16;5027980;28;20045;-61
2022/11/19 06:39:11;;;;;;;42.00;19.13;;;;;;;-142.25;100.00;58004.16;5029530;28;20058;-62
2022/11/19 06:41:37;;;;;;;38.57;18.10;;;;;;;-142.25;100.00;58004.16;5043504;28;20056;-61
2022/11/19 06:44:03;;;;;;;39.33;18.57;;;;;;;-142.25;100.00;58004.16;5037412;28;20046;-62
2022/11/19 06:46:29;;;;;;;37.60;18.77;;;;;;;-142.25;100.00;58004.16;5024101;28;20439;-61
2022/11/19 06:48:54;;;;;;;42.17;18.97;;;;;;;-142.25;100.00;58004.16;5028697;28;20080;-67
2022/11/19 06:51:20;;;;;;;38.23;19.10;;;;;;;-142.25;100.00;58004.16;5025358;28;20053;-61
2022/11/19 06:53:47;;;;;;;35.13;18.60;;;;;;;-142.25;100.00;58004.16;5020355;28;20076;-61
2022/11/19 06:56:13;;;;;;;38.20;19.63;;;;;;;-142.25;100.00;58004.16;5007991;28;20163;-61
2022/11/19 06:58:39;;;;;;;44.57;21.17;;;;;;;-142.25;100.00;58004.16;5032217;28;20041;-61
2022/11/19 07:01:04;;;;;;;44.77;20.93;;;;;;;-142.25;100.00;58004.16;5030620;28;20400;-60
2022/11/19 07:03:30;;;;;;;41.47;20.20;;;;;;;-142.25;100.00;58004.16;5026997;28;20091;-60
2022/11/19 07:06:01;;;;;;;36.53;17.60;;;;;;;-142.25;100.00;58004.16;5027732;28;20044;-61
2022/11/19 07:08:30;;;;;;;35.63;17.23;;;;;;;-142.25;100.00;58004.16;5031563;28;20480;-60
2022/11/19 07:10:55;;;;;;;36.57;17.53;;;;;;;-142.25;100.00;58004.16;5043968;28;20053;-60
2022/11/19 07:13:21;;;;;;;35.00;16.63;;;;;;;-142.25;100.00;58004.16;5024690;28;20061;-60
2022/11/19 07:15:46;;;;;;;39.23;18.53;;;;;;;-142.25;100.00;58004.16;5033212;28;20048;-59
2022/11/19 07:18:13;;;;;;;39.93;20.17;;;;;;;-142.25;100.00;58004.16;5034338;28;20132;-62
2022/11/19 07:20:39;;;;;;;34.97;18.30;;;;;;;-142.25;100.00;58004.16;5049936;28;20049;-61
2022/11/19 07:23:08;;;;;;;39.23;21.03;;;;;;;-142.25;100.00;58004.16;5030439;28;20037;-61
2022/11/19 07:25:34;;;;;;;31.77;14.93;;;;;;;-142.25;100.00;58004.16;5031358;28;20072;-62
2022/11/19 07:27:59;;;;;;;34.37;17.30;;;;;;;-142.25;100.00;58004.16;5030786;28;20946;-63
2022/11/19 07:30:25;;;;;;;37.03;19.67;;;;;;;-142.25;100.00;58004.16;5030113;28;20043;-60
2022/11/19 07:32:52;;;;;;;35.07;18.53;;;;;;;-142.25;100.00;58004.16;5030467;28;20045;-61
2022/11/19 07:35:17;;;;;;;37.67;19.00;;;;;;;-142.25;100.00;58004.16;5030449;28;20504;-61
2022/11/19 07:37:43;;;;;;;39.27;18.80;;;;;;;-142.25;100.00;58004.16;5030861;28;20060;-61
2022/11/19 07:40:10;;;;;;;39.60;18.67;;;;;;;-142.25;100.00;58004.16;5032993;28;20388;-61
2022/11/19 07:42:51;;;;;;;36.17;17.97;;;;;;;-142.25;100.00;58004.16;5030321;28;20042;-63
2022/11/19 07:45:19;;;;;;;34.47;18.37;;;;;;;-142.25;100.00;58004.16;5014463;28;20049;-60
2022/11/19 07:47:45;;;;;;;35.30;17.43;;;;;;;-142.25;100.00;58004.16;5029844;28;20052;-61
2022/11/19 07:50:11;;;;;;;38.07;17.80;;;;;;;-142.25;100.00;58004.16;5027363;28;20061;-61
2022/11/19 07:52:37;;;;;;;36.83;20.10;;;;;;;-142.25;100.00;58004.16;5024113;28;20053;-61
2022/11/19 07:55:03;;;;;;;43.23;19.37;;;;;;;-142.25;100.00;58004.16;5028239;28;20817;-60
2022/11/19 07:57:29;;;;;;;35.40;16.30;;;;;;;-142.25;100.00;58004.16;5032517;28;20072;-62
2022/11/19 07:59:55;;;;;;;32.23;16.80;;;;;;;-142.25;100.00;58004.16;5033498;28;20052;-60
2022/11/19 08:02:21;;;;;;;34.07;17.53;;;;;;;-142.25;100.00;58004.16;5031889;28;20507;-60
2022/11/19 08:04:46;;;;;;;30.27;16.93;;;;;;;-142.25;100.00;58004.16;5030402;28;20042;-61
2022/11/19 08:07:12;;;;;;;35.57;18.10;;;;;;;-142.25;100.00;58004.16;5031832;28;20123;-61
2022/11/19 08:09:37;;;;;;;31.23;16.53;;;;;;;-142.25;100.00;58004.16;5030335;28;20042;-61
2022/11/19 08:12:03;;;;;;;32.63;16.27;;;;;;;-142.25;100.00;58004.16;5045964;28;20053;-62
2022/11/19 08:14:29;;;;;;;30.57;15.23;;;;;;;-142.25;100.00;58004.16;5030943;28;20067;-61
2022/11/19 08:19:39;;;;;;;27.23;13.97;;;;;;;-142.25;100.00;58004.16;5030097;28;20052;-60
2022/11/19 08:22:04;;;;;;;32.83;15.10;;;;;;;-142.25;100.00;58004.16;5023612;28;20396;-60
2022/11/19 08:24:30;;;;;;;29.47;14.73;;;;;;;-142.25;100.00;58004.16;5024924;28;20099;-60
2022/11/19 08:26:55;;;;;;;29.03;15.87;;;;;;;-142.25;100.00;58004.16;5031593;28;20033;-60
2022/11/19 08:29:22;;;;;;;27.73;13.93;;;;;;;-142.25;100.00;58004.16;5031206;28;20046;-59
2022/11/19 08:31:49;;;;;;;27.37;13.80;;;;;;;-142.25;100.00;58004.16;5021893;28;20032;-60
2022/11/19 08:34:15;;;;;;;27.13;16.20;;;;;;;-142.25;100.00;58004.16;5025277;28;20041;-60
2022/11/19 08:36:41;;;;;;;28.03;13.60;;;;;;;-142.25;100.00;58004.16;5024073;28;20079;-60
2022/11/19 08:39:06;;;;;;;25.43;14.70;;;;;;;-142.25;100.00;58004.16;5024183;28;20436;-59
2022/11/19 08:44:16;;;;;;;23.73;12.93;;;;;;;-142.25;100.00;58004.16;5029982;28;20044;-60
2022/11/19 08:46:43;;;;;;;27.10;13.30;;;;;;;-142.25;100.00;58004.16;5024816;28;20063;-62
2022/11/19 08:49:10;;;;;;;22.17;13.40;;;;;;;-142.25;100.00;58004.16;5024051;28;20146;-61
2022/11/19 08:51:36;;;;;;;27.33;14.07;;;;;;;-142.25;100.00;58004.16;5025146;28;20041;-61
2022/11/19 08:54:03;;;;;;;25.40;14.53;;;;;;;-142.25;100.00;58004.16;5022050;28;20064;-60
2022/11/19 08:56:28;;;;;;;25.90;13.07;;;;;;;-142.25;100.00;58004.16;5025211;28;20424;-60
2022/11/19 08:58:54;;;;;;;25.37;13.63;;;;;;;-142.25;100.00;58004.16;5046521;28;20044;-60
2022/11/19 09:01:20;;;;;;;19.40;11.93;;;;;;;-142.25;100.00;58004.16;5029208;28;20049;-60
2022/11/19 09:03:46;;;;;;;22.07;11.27;;;;;;;-142.25;100.00;58004.16;5029684;28;20037;-60
2022/11/19 09:06:12;;;;;;;17.13;9.27;;;;;;;-142.25;100.00;58004.16;5030329;28;20585;-61
2022/11/19 09:08:38;;;;;;;17.77;9.90;;;;;;;-142.25;100.00;58004.16;5024209;28;20156;-60
2022/11/19 09:11:10;;;;;;;15.53;8.50;;;;;;;-142.25;100.00;58004.16;5023480;28;20129;-60
2022/11/19 09:13:36;;;;;;;16.30;9.13;;;;;;;-142.25;100.00;58004.16;5028947;28;20395;-61
2022/11/19 09:16:02;;;;;;;17.00;8.27;;;;;;;-142.25;100.00;58004.16;5028655;28;20033;-60
2022/11/19 09:18:27;;;;;;;18.00;10.00;;;;;;;-142.25;100.00;58004.16;5027296;28;20056;-61
2022/11/19 09:20:54;;;;;;;22.63;12.20;;;;;;;-142.25;100.00;58004.16;5023726;28;20420;-61
2022/11/19 09:23:21;;;;;;;20.80;11.33;;;;;;;-142.25;100.00;58004.16;5023795;28;20036;-61
2022/11/19 09:25:58;;;;;;;18.03;10.13;;;;;;;-142.25;100.00;58004.16;5024493;28;20033;-63
2022/11/19 09:28:25;;;;;;;19.13;10.77;;;;;;;-142.25;100.00;58004.16;5024173;28;20156;-59
2022/11/19 09:31:05;;;;;;;21.03;10.73;;;;;;;-142.25;100.00;58004.16;5024249;28;20604;-56
2022/11/19 09:33:33;;;;;;;23.27;11.37;;;;;;;-142.25;100.00;58004.16;5022746;28;20045;-62
2022/11/19 09:35:59;;;;;;;24.23;12.23;;;;;;;-142.25;100.00;58004.16;5022920;28;20234;-60
2022/11/19 09:38:25;;;;;;;22.00;10.80;;;;;;;-142.25;100.00;58004.16;5024284;28;20550;-59
2022/11/19 09:40:53;;;;;;;22.37;12.77;;;;;;;-142.25;100.00;58004.16;5024804;28;20060;-61
2022/11/19 09:43:22;;;;;;;27.07;13.60;;;;;;;-142.25;100.00;58004.16;5029453;28;20198;-62
2022/11/19 09:46:05;;;;;;;27.50;13.10;;;;;;;-142.25;100.00;58004.16;5027766;28;20048;-60
2022/11/19 09:48:34;;;;;;;26.13;15.23;;;;;;;-142.25;100.00;58004.16;5022179;28;20605;-61
2022/11/19 09:51:09;;;;;;;25.00;13.00;;;;;;;-142.25;100.00;58004.16;5024802;28;20048;-61
2022/11/19 09:53:43;;;;;;;20.65;12.20;;;;;;;-142.25;100.00;58004.16;5028851;28;20091;-63
2022/11/19 09:56:15;;;;;;;27.87;13.53;;;;;;;-142.25;100.00;58004.16;5024381;28;20029;-60
2022/11/19 09:58:42;;;;;;;22.93;12.53;;;;;;;-142.25;100.00;58004.16;5022585;28;20037;-62
2022/11/19 10:01:14;;;;;;;25.50;14.00;;;;;;;-142.25;100.00;58004.16;5026012;28;20128;-61
2022/11/19 10:03:45;;;;;;;22.13;12.47;;;;;;;-142.25;100.00;58004.16;5027969;28;20457;-61
2022/11/19 10:06:13;;;;;;;25.63;13.33;;;;;;;-142.25;100.00;58004.16;5029103;28;20714;-63
2022/11/19 10:08:51;;;;;;;23.93;12.97;;;;;;;-142.25;100.00;58004.16;5029292;28;20076;-63
2022/11/19 10:11:30;;;;;;;24.77;12.77;;;;;;;-142.25;100.00;58004.16;5026881;28;20124;-62
2022/11/19 10:14:31;;;;;;;23.17;13.93;;;;;;;-142.25;100.00;58004.16;5027834;28;20041;-61
2022/11/19 10:17:22;;;;;;;26.33;13.73;;;;;;;-142.25;100.00;58004.16;5028485;28;20152;-59
2022/11/19 10:20:19;;;;;;;26.07;12.80;;;;;;;-142.25;100.00;58004.16;5023796;28;20488;-61
2022/11/19 10:23:01;;;;;;;25.43;12.87;;;;;;;-142.25;100.00;58004.16;5029511;28;20111;-61
2022/11/19 10:25:37;;;;;;;20.23;11.20;;;;;;;-142.25;100.00;58004.16;5036071;28;20038;-60
2022/11/19 10:28:21;;;;;;;20.67;10.93;;;;;;;-142.25;100.00;58004.16;5032548;28;20037;-60
2022/11/19 10:30:54;;;;;;;17.77;10.95;;;;;;;-142.25;100.00;58004.16;5024582;28;20130;-60
2022/11/19 10:33:43;;;;;;;24.17;12.80;;;;;;;-142.25;100.00;58004.16;5032789;28;20076;-61
2022/11/19 10:36:18;;;;;;;23.30;12.57;;;;;;;-142.25;100.00;58004.16;5026902;28;20048;-63
2022/11/19 10:38:43;;;;;;;;;;;;;;;-142.25;100.00;58004.16;5031449;28;20048;-61
2022/11/19 10:41:19;;;;;;;22.70;11.40;;;;;;;-142.25;100.00;58004.16;5033838;28;19921;-61
2022/11/19 10:44:00;;;;;;;22.43;11.93;;;;;;;-142.25;100.00;58004.16;5033489;28;20042;-61
2022/11/19 10:46:27;;;;;;;22.93;11.57;;;;;;;-142.25;100.00;58004.16;5033927;28;20121;-60
2022/11/19 10:49:01;;;;;;;21.97;11.30;;;;;;;-142.25;100.00;58004.16;5032387;28;20066;-61
2022/11/19 10:51:36;;;;;;;21.40;12.47;;;;;;;-142.25;100.00;58004.16;5035375;28;20068;-62
2022/11/19 10:54:06;;;;;;;28.70;13.40;;;;;;;-142.25;100.00;58004.16;5032379;28;20540;-61
2022/11/19 10:56:41;;;;;;;25.10;12.53;;;;;;;-142.25;100.00;58004.16;5033826;28;20037;-62
2022/11/19 10:59:06;;;;;;;25.85;12.55;;;;;;;-142.25;100.00;58004.16;5048866;28;20191;-63
2022/11/19 11:01:35;;;;;;;17.70;10.00;;;;;;;-142.25;100.00;58004.16;5050140;28;20476;-62
2022/11/19 11:04:19;;;;;;;22.63;11.67;;;;;;;-142.25;100.00;58004.16;5033625;28;20554;-61
2022/11/19 11:06:56;;;;;;;19.97;9.10;;;;;;;-142.25;100.00;58004.16;5042662;28;20056;-61
2022/11/19 11:09:35;;;;;;;20.17;10.00;;;;;;;-142.25;100.00;58004.16;5046253;28;20140;-60
2022/11/19 11:14:53;;;;;;;20.40;9.67;;;;;;;-142.25;100.00;58004.16;5031021;28;20092;-61
2022/11/19 11:17:30;;;;;;;17.10;9.10;;;;;;;-142.25;100.00;58004.16;5035854;28;20044;-60
2022/11/19 11:19:57;;;;;;;12.63;7.93;;;;;;;-142.25;100.00;58004.16;5028721;28;20477;-61
2022/11/19 11:22:23;;;;;;;16.13;9.07;;;;;;;-142.25;100.00;58004.16;5032718;28;20103;-64
2022/11/19 11:24:48;;;;;;;13.27;7.87;;;;;;;-142.25;100.00;58004.16;5033427;28;20136;-60
2022/11/19 11:27:29;;;;;;;13.50;9.63;;;;;;;-142.25;100.00;58004.16;5033966;28;20125;-61
2022/11/19 11:30:24;;;;;;;14.50;8.87;;;;;;;-142.25;100.00;58004.16;5030738;28;20571;-60
2022/11/19 11:32:51;;;;;;;15.17;8.47;;;;;;;-142.25;100.00;58004.16;5024996;28;20126;-63
2022/11/19 11:35:35;;;;;;;16.77;10.57;;;;;;;-142.25;100.00;58004.16;5029690;28;20408;-61